createdAt,value
2019-03-11T00:00:55.398Z,5.62
2019-03-11T00:03:27.100Z,4.63
2019-03-11T00:05:59.042Z,5.60
2019-03-11T00:08:30.304Z,6.07
2019-03-11T00:11:02.351Z,6.50
2019-03-11T00:13:34.076Z,5.27
2019-03-11T00:16:05.347Z,5.93
2019-03-11T00:18:37.515Z,5.97
2019-03-11T00:21:09.403Z,5.87
2019-03-11T00:23:40.961Z,6.67
2019-03-11T00:26:12.985Z,6.43
2019-03-11T00:28:44.748Z,6.20
2019-03-11T00:31:15.981Z,7.30
2019-03-11T00:33:47.955Z,9.43
2019-03-11T00:36:19.619Z,8.83
2019-03-11T00:38:50.909Z,8.93
2019-03-11T00:41:22.434Z,7.90
2019-03-11T00:43:53.734Z,8.38
2019-03-11T00:46:25.727Z,10.53
2019-03-11T00:48:57.428Z,11.30
2019-03-11T00:51:28.786Z,10.30
2019-03-11T00:54:00.363Z,12.33
2019-03-11T00:56:32.021Z,11.97
2019-03-11T00:59:03.681Z,12.53
2019-03-11T01:01:35.021Z,14.17
2019-03-11T01:04:06.361Z,11.90
2019-03-11T01:06:37.669Z,15.17
2019-03-11T01:09:09.731Z,14.60
2019-03-11T01:11:41.349Z,12.75
2019-03-11T01:14:12.953Z,11.93
2019-03-11T01:16:44.574Z,10.88
2019-03-11T01:19:15.918Z,11.77
2019-03-11T01:21:47.278Z,11.23
2019-03-11T01:24:18.911Z,13.62
2019-03-11T01:26:50.294Z,14.80
2019-03-11T01:29:21.870Z,12.07
2019-03-11T01:31:54.111Z,12.47
2019-03-11T01:34:25.464Z,16.57
2019-03-11T01:36:57.625Z,11.43
2019-03-11T01:39:29.597Z,13.28
2019-03-11T01:42:01.129Z,11.57
2019-03-11T01:44:32.437Z,11.85
2019-03-11T01:47:03.716Z,11.40
2019-03-11T01:49:35.035Z,14.97
2019-03-11T01:52:06.315Z,14.17
2019-03-11T01:54:39.237Z,10.17
2019-03-11T01:57:10.548Z,13.80
2019-03-11T01:59:42.194Z,9.27
2019-03-11T02:02:14.638Z,10.25
2019-03-11T02:04:45.940Z,12.63
2019-03-11T02:07:17.556Z,13.00
2019-03-11T02:09:48.887Z,7.20
2019-03-11T02:12:20.372Z,9.53
2019-03-11T02:14:52.142Z,8.30
2019-03-11T02:17:23.828Z,11.53
2019-03-11T02:19:55.148Z,11.57
2019-03-11T02:22:26.801Z,9.30
2019-03-11T02:24:58.095Z,7.10
2019-03-11T02:27:29.780Z,11.57
2019-03-11T02:30:01.042Z,9.90
2019-03-11T02:32:32.296Z,7.05
2019-03-11T02:35:03.927Z,5.60
2019-03-11T02:37:35.232Z,7.90
2019-03-11T02:40:07.289Z,8.70
2019-03-11T02:42:38.913Z,9.53
2019-03-11T02:45:10.630Z,10.73
2019-03-11T02:47:42.310Z,9.27
2019-03-11T02:50:14.235Z,8.07
2019-03-11T02:52:45.849Z,9.13
2019-03-11T02:55:19.056Z,9.00
2019-03-11T02:57:50.806Z,11.77
2019-03-11T03:00:22.540Z,7.35
2019-03-11T03:03:10.938Z,9.50
2019-03-11T03:05:54.876Z,6.23
2019-03-11T03:08:26.134Z,8.00
2019-03-11T03:10:58.144Z,9.63
2019-03-11T03:13:29.667Z,8.63
2019-03-11T03:16:00.949Z,10.90
2019-03-11T03:18:32.256Z,9.63
2019-03-11T03:21:03.867Z,11.23
2019-03-11T03:23:35.204Z,9.47
2019-03-11T03:26:06.540Z,12.50
2019-03-11T03:28:37.895Z,11.90
2019-03-11T03:31:09.141Z,10.13
2019-03-11T03:33:40.841Z,17.00
2019-03-11T03:36:12.141Z,15.13
2019-03-11T03:38:43.406Z,20.20
2019-03-11T03:41:14.705Z,16.23
2019-03-11T03:43:46.301Z,15.48
2019-03-11T03:46:19.550Z,19.57
2019-03-11T03:48:51.768Z,24.80
2019-03-11T03:51:23.580Z,24.13
2019-03-11T03:53:54.847Z,18.20
2019-03-11T03:56:26.155Z,20.80
2019-03-11T03:58:57.412Z,25.80
2019-03-11T04:01:29.035Z,22.40
2019-03-11T04:04:00.676Z,19.73
2019-03-11T04:06:31.972Z,24.75
2019-03-11T04:09:03.322Z,19.07
2019-03-11T04:11:34.640Z,22.00
2019-03-11T04:14:05.922Z,25.93
2019-03-11T04:16:37.211Z,19.30
2019-03-11T04:19:08.485Z,19.67
2019-03-11T04:21:40.164Z,16.67
2019-03-11T04:24:12.282Z,17.93
2019-03-11T04:26:43.710Z,22.83
2019-03-11T04:29:15.344Z,18.27
2019-03-11T04:31:47.882Z,20.93
2019-03-11T04:34:19.537Z,24.32
2019-03-11T04:36:50.858Z,19.30
2019-03-11T04:39:23.130Z,17.37
2019-03-11T04:41:54.771Z,20.23
2019-03-11T04:44:26.071Z,16.33
2019-03-11T04:46:57.315Z,20.30
2019-03-11T04:49:28.931Z,17.82
2019-03-11T04:52:00.595Z,14.17
2019-03-11T04:54:32.290Z,15.33
2019-03-11T04:57:04.236Z,18.10
2019-03-11T04:59:36.128Z,14.17
2019-03-11T05:02:07.868Z,10.93
2019-03-11T05:04:39.561Z,15.00
2019-03-11T05:07:11.233Z,11.30
2019-03-11T05:09:42.404Z,13.67
2019-03-11T05:12:14.041Z,11.97
2019-03-11T05:14:45.773Z,14.27
2019-03-11T05:17:17.748Z,12.47
2019-03-11T05:19:49.118Z,14.03
2019-03-11T05:22:20.758Z,14.37
2019-03-11T05:24:52.131Z,16.07
2019-03-11T05:27:23.523Z,11.93
2019-03-11T05:29:56.378Z,11.13
2019-03-11T05:32:28.759Z,14.63
2019-03-11T05:35:01.051Z,9.43
2019-03-11T05:37:33.679Z,13.47
2019-03-11T05:40:05.349Z,8.80
2019-03-11T05:42:37.038Z,10.93
2019-03-11T05:45:10.631Z,11.10
2019-03-11T05:47:43.011Z,9.03
2019-03-11T05:50:15.831Z,13.50
2019-03-11T05:52:47.618Z,11.90
2019-03-11T05:55:21.157Z,10.03
2019-03-11T05:57:52.726Z,9.73
2019-03-11T06:00:27.271Z,9.83
2019-03-11T06:02:58.611Z,6.10
2019-03-11T06:05:30.576Z,10.13
2019-03-11T06:08:02.517Z,8.23
2019-03-11T06:10:34.167Z,6.87
2019-03-11T06:13:05.504Z,8.93
2019-03-11T06:15:36.809Z,9.43
2019-03-11T06:18:08.728Z,7.53
2019-03-11T06:20:53.365Z,6.07
2019-03-11T06:23:24.989Z,9.93
2019-03-11T06:25:57.019Z,7.87
2019-03-11T06:28:28.950Z,10.43
2019-03-11T06:31:00.310Z,8.27
2019-03-11T06:33:31.889Z,7.30
2019-03-11T06:36:03.776Z,5.47
2019-03-11T06:38:35.063Z,6.47
2019-03-11T06:41:06.682Z,8.37
2019-03-11T06:43:37.998Z,7.87
2019-03-11T06:46:09.379Z,9.37
2019-03-11T06:48:41.289Z,5.00
2019-03-11T06:51:12.908Z,8.03
2019-03-11T06:53:44.910Z,7.50
2019-03-11T06:56:16.888Z,8.97
2019-03-11T06:58:48.702Z,11.15
2019-03-11T07:01:21.301Z,8.57
2019-03-11T07:03:52.903Z,12.30
2019-03-11T07:06:24.510Z,8.63
2019-03-11T07:08:56.006Z,9.60
2019-03-11T07:11:27.672Z,9.87
2019-03-11T07:13:59.971Z,11.87
2019-03-11T07:16:31.507Z,13.50
2019-03-11T07:19:03.159Z,11.10
2019-03-11T07:21:34.837Z,11.35
2019-03-11T07:24:06.098Z,8.30
2019-03-11T07:26:37.944Z,8.08
2019-03-11T07:29:09.565Z,12.67
2019-03-11T07:31:41.477Z,6.77
2019-03-11T07:34:12.733Z,10.18
2019-03-11T07:36:44.363Z,16.93
2019-03-11T07:39:15.960Z,12.93
2019-03-11T07:41:47.322Z,13.10
2019-03-11T07:44:18.866Z,13.50
2019-03-11T07:46:50.218Z,9.30
2019-03-11T07:49:21.630Z,11.20
2019-03-11T07:51:52.915Z,9.10
2019-03-11T07:54:35.282Z,7.63
2019-03-11T07:56:58.617Z,7.80
2019-03-11T07:59:30.583Z,17.00
2019-03-11T08:02:01.950Z,16.43
2019-03-11T08:04:33.630Z,7.93
2019-03-11T08:07:05.225Z,13.47
2019-03-11T08:09:38.198Z,15.20
2019-03-11T08:12:09.829Z,8.88
2019-03-11T08:14:41.468Z,8.50
2019-03-11T08:17:13.050Z,12.53
2019-03-11T08:19:44.757Z,9.78
2019-03-11T08:22:16.021Z,7.78
2019-03-11T08:24:47.641Z,14.80
2019-03-11T08:27:19.171Z,6.10
2019-03-11T08:29:50.572Z,9.53
2019-03-11T08:32:22.472Z,12.47
2019-03-11T08:34:54.117Z,8.20
2019-03-11T08:37:25.812Z,7.53
2019-03-11T08:39:57.352Z,7.53
2019-03-11T08:42:28.775Z,13.13
2019-03-11T08:45:00.061Z,8.57
2019-03-11T08:47:31.354Z,8.37
2019-03-11T08:50:03.445Z,9.47
2019-03-11T08:52:34.757Z,12.17
2019-03-11T08:58:46.330Z,6.23
2019-03-11T09:01:17.866Z,8.55
2019-03-11T09:03:50.277Z,8.20
2019-03-11T09:06:21.983Z,9.37
2019-03-11T09:08:53.239Z,8.07
2019-03-11T09:11:24.615Z,6.03
2019-03-11T09:13:55.964Z,7.97
2019-03-11T09:16:28.804Z,7.37
2019-03-11T09:19:00.064Z,5.83
2019-03-11T09:21:33.306Z,5.13
2019-03-11T09:24:05.829Z,9.80
2019-03-11T09:26:37.052Z,4.08
2019-03-11T09:29:08.651Z,8.10
2019-03-11T09:31:39.908Z,6.60
2019-03-11T09:34:11.153Z,6.07
2019-03-11T09:36:42.474Z,4.97
2019-03-11T09:39:13.821Z,8.93
2019-03-11T09:41:45.099Z,6.93
2019-03-11T09:44:16.727Z,5.17
2019-03-11T09:46:48.304Z,5.23
2019-03-11T09:49:19.943Z,8.40
2019-03-11T09:51:51.285Z,2.70
2019-03-11T09:54:22.536Z,4.50
2019-03-11T09:56:53.794Z,5.10
2019-03-11T09:59:25.099Z,4.30
2019-03-11T10:01:56.689Z,3.97
2019-03-11T10:04:27.937Z,6.43
2019-03-11T10:06:59.242Z,7.63
2019-03-11T10:09:30.566Z,5.03
2019-03-11T10:12:01.827Z,6.93
2019-03-11T10:14:34.446Z,4.57
2019-03-11T10:17:05.811Z,3.07
2019-03-11T10:19:37.067Z,7.23
2019-03-11T10:22:08.640Z,4.13
2019-03-11T10:24:41.879Z,5.72
2019-03-11T10:27:13.044Z,5.40
2019-03-11T10:29:44.341Z,6.87
2019-03-11T10:32:17.933Z,5.37
2019-03-11T10:34:49.277Z,7.33
2019-03-11T10:37:20.581Z,3.57
2019-03-11T10:39:52.141Z,2.53
2019-03-11T10:42:23.715Z,3.03
2019-03-11T10:44:55.341Z,3.17
2019-03-11T10:47:26.592Z,3.00
2019-03-11T10:49:57.891Z,4.17
2019-03-11T10:52:29.260Z,4.47
2019-03-11T10:55:00.971Z,3.70
2019-03-11T10:57:32.559Z,4.20
2019-03-11T11:00:03.780Z,4.60
2019-03-11T11:02:35.130Z,4.50
2019-03-11T11:05:10.370Z,4.43
2019-03-11T11:07:41.966Z,5.47
2019-03-11T11:10:13.745Z,4.43
2019-03-11T11:12:45.248Z,8.70
2019-03-11T11:15:21.453Z,2.67
2019-03-11T11:17:52.482Z,4.30
2019-03-11T11:20:24.561Z,6.57
2019-03-11T11:22:55.959Z,4.37
2019-03-11T11:25:27.824Z,4.57
2019-03-11T11:27:59.517Z,4.03
2019-03-11T11:30:31.297Z,5.33
2019-03-11T11:33:02.689Z,6.80
2019-03-11T11:35:34.459Z,4.95
2019-03-11T11:38:06.419Z,18.60
2019-03-11T11:40:37.998Z,6.20
2019-03-11T11:43:10.025Z,4.70
2019-03-11T11:45:41.382Z,4.90
2019-03-11T11:48:13.159Z,6.93
2019-03-11T11:50:45.067Z,6.53
2019-03-11T11:53:16.409Z,5.60
2019-03-11T11:55:57.398Z,7.50
2019-03-11T11:58:21.188Z,7.20
2019-03-11T12:00:52.818Z,6.08
2019-03-11T12:03:24.695Z,7.27
2019-03-11T12:05:56.633Z,4.73
2019-03-11T12:08:28.533Z,7.30
2019-03-11T12:10:59.839Z,4.63
2019-03-11T12:13:31.464Z,6.47
2019-03-11T12:16:03.073Z,6.73
2019-03-11T12:18:34.318Z,5.43
2019-03-11T12:21:06.609Z,5.05
2019-03-11T12:23:45.955Z,6.73
2019-03-11T12:26:10.855Z,4.30
2019-03-11T12:28:42.103Z,10.88
2019-03-11T12:31:15.147Z,7.13
2019-03-11T12:33:46.806Z,4.53
2019-03-11T12:36:18.420Z,4.47
2019-03-11T12:38:49.752Z,4.37
2019-03-11T12:41:21.307Z,10.07
2019-03-11T12:43:52.848Z,8.87
2019-03-11T12:46:24.143Z,9.35
2019-03-11T12:48:55.756Z,8.33
2019-03-11T12:51:27.021Z,4.63
2019-03-11T12:53:58.662Z,9.77
2019-03-11T12:56:33.145Z,9.00
2019-03-11T12:59:04.437Z,5.83
2019-03-11T13:01:35.759Z,6.73
2019-03-11T13:04:07.023Z,4.13
2019-03-11T13:06:38.583Z,8.10
2019-03-11T13:09:10.914Z,5.80
2019-03-11T13:11:42.155Z,9.33
2019-03-11T13:14:13.441Z,5.33
2019-03-11T13:16:45.085Z,7.37
2019-03-11T13:19:16.321Z,6.30
2019-03-11T13:21:48.225Z,6.93
2019-03-11T13:24:20.182Z,5.57
2019-03-11T13:26:52.085Z,5.83
2019-03-11T13:29:23.673Z,7.00
2019-03-11T13:31:55.641Z,9.23
2019-03-11T13:34:29.136Z,9.37
2019-03-11T13:37:01.038Z,6.33
2019-03-11T13:39:32.345Z,7.33
2019-03-11T13:42:03.603Z,5.13
2019-03-11T13:44:34.912Z,4.37
2019-03-11T13:47:06.656Z,6.43
2019-03-11T13:49:37.844Z,4.97
2019-03-11T13:52:09.117Z,11.15
2019-03-11T13:54:40.674Z,5.57
2019-03-11T13:57:11.988Z,3.57
2019-03-11T13:59:43.221Z,6.73
2019-03-11T14:02:14.775Z,4.22
2019-03-11T14:04:46.091Z,10.80
2019-03-11T14:07:17.687Z,5.07
2019-03-11T14:09:49.006Z,6.47
2019-03-11T14:12:21.138Z,5.85
2019-03-11T14:14:52.806Z,5.47
2019-03-11T14:17:24.083Z,3.73
2019-03-11T14:19:55.848Z,1.95
2019-03-11T14:22:27.231Z,2.23
2019-03-11T14:24:58.466Z,1.00
2019-03-11T14:27:29.680Z,1.47
2019-03-11T14:30:03.931Z,2.50
2019-03-11T14:32:35.522Z,2.47
2019-03-11T14:35:07.549Z,1.43
2019-03-11T14:37:39.177Z,1.67
2019-03-11T14:40:11.454Z,1.60
2019-03-11T14:42:42.717Z,2.80
2019-03-11T14:45:16.156Z,1.53
2019-03-11T14:47:48.186Z,3.20
2019-03-11T14:50:19.741Z,1.50
2019-03-11T14:52:50.952Z,1.00
2019-03-11T14:55:23.399Z,1.05
2019-03-11T14:57:54.663Z,1.07
2019-03-11T15:00:26.221Z,3.13
2019-03-11T15:02:57.781Z,2.60
2019-03-11T15:05:29.062Z,2.37
2019-03-11T15:08:00.441Z,1.60
2019-03-11T15:10:31.751Z,1.20
2019-03-11T15:13:03.427Z,2.43
2019-03-11T15:15:34.670Z,3.97
2019-03-11T15:18:06.018Z,4.00
2019-03-11T15:20:37.615Z,4.43
2019-03-11T15:23:20.255Z,4.13
2019-03-11T15:25:46.071Z,3.07
2019-03-11T15:28:18.163Z,3.13
2019-03-11T15:30:49.829Z,2.70
2019-03-11T15:33:21.826Z,4.50
2019-03-11T15:35:53.223Z,4.17
2019-03-11T15:38:24.545Z,2.50
2019-03-11T15:40:56.894Z,5.45
2019-03-11T15:43:28.161Z,3.23
2019-03-11T15:45:59.455Z,4.03
2019-03-11T15:48:31.168Z,2.97
2019-03-11T15:51:02.494Z,3.87
2019-03-11T15:53:33.736Z,5.45
2019-03-11T15:56:05.044Z,5.13
2019-03-11T15:58:36.396Z,3.23
2019-03-11T16:01:07.947Z,2.90
2019-03-11T16:03:39.629Z,6.70
2019-03-11T16:06:10.986Z,6.73
2019-03-11T16:08:42.283Z,5.67
2019-03-11T16:11:13.632Z,5.53
2019-03-11T16:13:44.932Z,8.67
2019-03-11T16:16:16.233Z,6.22
2019-03-11T16:18:47.573Z,6.47
2019-03-11T16:21:19.018Z,9.30
2019-03-11T16:23:50.573Z,12.83
2019-03-11T16:26:22.151Z,8.67
2019-03-11T16:28:53.632Z,8.33
2019-03-11T16:31:24.941Z,9.53
2019-03-11T16:33:56.295Z,8.93
2019-03-11T16:36:27.754Z,9.97
2019-03-11T16:38:59.736Z,9.83
2019-03-11T16:41:31.399Z,8.90
2019-03-11T16:44:03.047Z,8.73
2019-03-11T16:46:34.652Z,8.85
2019-03-11T16:49:05.933Z,5.97
2019-03-11T16:51:37.469Z,9.93
2019-03-11T16:54:09.368Z,5.53
2019-03-11T16:56:40.698Z,6.10
2019-03-11T16:59:12.008Z,10.67
2019-03-11T17:01:43.354Z,8.73
2019-03-11T17:04:15.130Z,7.43
2019-03-11T17:06:46.658Z,9.65
2019-03-11T17:09:17.851Z,10.00
2019-03-11T17:11:49.203Z,11.97
2019-03-11T17:14:20.792Z,12.83
2019-03-11T17:16:52.753Z,11.30
2019-03-11T17:19:24.475Z,13.03
2019-03-11T17:21:56.155Z,11.23
2019-03-11T17:24:28.944Z,11.20
2019-03-11T17:27:00.971Z,10.47
2019-03-11T17:29:32.351Z,17.80
2019-03-11T17:32:03.950Z,14.90
2019-03-11T17:34:35.469Z,12.77
2019-03-11T17:37:07.310Z,14.17
2019-03-11T17:39:38.622Z,14.30
2019-03-11T17:42:10.116Z,10.23
2019-03-11T17:44:41.571Z,18.57
2019-03-11T17:47:13.325Z,22.97
2019-03-11T17:49:44.700Z,27.40
2019-03-11T17:52:16.189Z,23.53
2019-03-11T17:54:49.101Z,26.03
2019-03-11T17:57:20.826Z,35.80
2019-03-11T17:59:52.410Z,33.37
2019-03-11T18:02:24.498Z,31.50
2019-03-11T18:04:56.206Z,24.33
2019-03-11T18:07:28.072Z,17.80
2019-03-11T18:09:59.679Z,22.03
2019-03-11T18:12:30.972Z,20.60
2019-03-11T18:15:02.360Z,21.63
2019-03-11T18:17:34.497Z,31.48
2019-03-11T18:20:06.343Z,22.23
2019-03-11T18:22:37.966Z,21.07
2019-03-11T18:25:10.455Z,20.68
2019-03-11T18:27:41.804Z,25.40
2019-03-11T18:30:19.496Z,25.90
2019-03-11T18:32:51.041Z,18.27
2019-03-11T18:35:22.707Z,17.83
2019-03-11T18:38:03.630Z,16.40
2019-03-11T18:40:28.170Z,15.57
2019-03-11T18:43:02.374Z,15.00
2019-03-11T18:45:34.161Z,15.37
2019-03-11T18:48:08.902Z,12.13
2019-03-11T18:50:40.327Z,12.50
2019-03-11T18:53:11.644Z,13.95
2019-03-11T18:55:42.904Z,20.88
2019-03-11T18:58:14.421Z,19.70
2019-03-11T19:00:45.705Z,20.93
2019-03-11T19:03:17.163Z,18.53
2019-03-11T19:05:50.720Z,17.45
2019-03-11T19:08:22.374Z,20.90
2019-03-11T19:10:54.166Z,18.70
2019-03-11T19:13:25.840Z,19.83
2019-03-11T19:15:57.178Z,17.63
2019-03-11T19:18:28.465Z,18.30
2019-03-11T19:21:00.254Z,21.13
2019-03-11T19:23:32.172Z,18.17
2019-03-11T19:26:03.748Z,16.43
2019-03-11T19:28:35.860Z,18.07
2019-03-11T19:31:09.590Z,19.40
2019-03-11T19:33:40.980Z,17.37
2019-03-11T19:36:12.417Z,16.90
2019-03-11T19:38:43.952Z,14.90
2019-03-11T19:41:15.180Z,17.80
2019-03-11T19:43:46.837Z,15.00
2019-03-11T19:46:18.066Z,13.87
2019-03-11T19:48:53.089Z,15.40
2019-03-11T19:51:24.889Z,16.10
2019-03-11T19:53:56.370Z,16.20
2019-03-11T19:56:27.694Z,23.90
2019-03-11T19:59:01.045Z,16.77
2019-03-11T20:01:33.117Z,18.23
2019-03-11T20:04:05.856Z,23.40
2019-03-11T20:06:40.598Z,16.50
2019-03-11T20:09:14.801Z,20.92
2019-03-11T20:11:46.476Z,20.20
2019-03-11T20:14:18.504Z,22.20
2019-03-11T20:16:50.413Z,19.07
2019-03-11T20:19:28.261Z,28.20
2019-03-11T20:22:35.042Z,23.40
2019-03-11T20:25:10.276Z,20.60
2019-03-11T20:27:41.931Z,24.90
2019-03-11T20:30:18.726Z,20.07
2019-03-11T20:32:50.525Z,22.52
2019-03-11T20:35:22.012Z,21.97
2019-03-11T20:37:54.035Z,19.83
2019-03-11T20:40:25.393Z,24.37
2019-03-11T20:42:56.784Z,23.10
2019-03-11T20:45:28.961Z,24.27
2019-03-11T20:48:00.807Z,27.30
2019-03-11T20:50:41.425Z,24.93
2019-03-11T20:53:05.842Z,24.10
2019-03-11T20:55:37.635Z,23.17
2019-03-11T20:58:08.880Z,26.93
2019-03-11T21:00:40.313Z,21.47
2019-03-11T21:03:12.187Z,23.27
2019-03-11T21:05:44.097Z,20.60
2019-03-11T21:08:15.523Z,26.43
2019-03-11T21:10:47.119Z,23.97
2019-03-11T21:13:18.629Z,21.57
2019-03-11T21:15:50.374Z,23.30
2019-03-11T21:18:21.709Z,29.07
2019-03-11T21:21:04.192Z,25.80
2019-03-11T21:23:26.524Z,30.52
2019-03-11T21:25:58.526Z,27.63
2019-03-11T21:28:29.861Z,25.43
2019-03-11T21:31:01.265Z,30.00
2019-03-11T21:33:32.970Z,29.02
2019-03-11T21:36:04.838Z,27.77
2019-03-11T21:38:36.516Z,27.00
2019-03-11T21:41:07.849Z,32.97
2019-03-11T21:43:39.600Z,32.17
2019-03-11T21:46:13.981Z,29.73
2019-03-11T21:48:47.662Z,27.07
2019-03-11T21:51:18.988Z,32.33
2019-03-11T21:53:50.721Z,29.07
2019-03-11T21:56:22.041Z,32.83
2019-03-11T21:58:53.908Z,28.63
2019-03-11T22:01:25.683Z,28.70
2019-03-11T22:03:57.068Z,26.70
2019-03-11T22:06:30.673Z,31.47
2019-03-11T22:09:01.392Z,30.23
2019-03-11T22:11:33.539Z,29.80
2019-03-11T22:14:05.432Z,27.70
2019-03-11T22:16:37.108Z,33.93
2019-03-11T22:19:08.373Z,28.37
2019-03-11T22:21:42.262Z,27.37
2019-03-11T22:24:16.552Z,25.90
2019-03-11T22:26:48.506Z,25.97
2019-03-11T22:29:19.814Z,29.90
2019-03-11T22:31:51.535Z,25.23
2019-03-11T22:34:23.127Z,24.87
2019-03-11T22:36:56.018Z,26.60
2019-03-11T22:39:27.508Z,24.73
2019-03-11T22:41:58.749Z,22.87
2019-03-11T22:44:30.002Z,22.60
2019-03-11T22:47:01.581Z,25.60
2019-03-11T22:49:33.331Z,22.33
2019-03-11T22:52:05.213Z,26.60
2019-03-11T22:54:36.830Z,23.30
2019-03-11T22:57:08.107Z,25.63
2019-03-11T22:59:42.365Z,23.50
2019-03-11T23:02:16.099Z,21.73
2019-03-11T23:04:47.634Z,19.27
2019-03-11T23:07:18.895Z,24.30
2019-03-11T23:09:50.234Z,32.57
2019-03-11T23:12:22.072Z,21.93
2019-03-11T23:14:53.501Z,25.60
2019-03-11T23:17:25.100Z,26.37
2019-03-11T23:19:57.729Z,24.90
2019-03-11T23:22:29.261Z,31.05
2019-03-11T23:25:00.662Z,23.43
2019-03-11T23:27:35.027Z,26.40
2019-03-11T23:30:05.918Z,27.67
2019-03-11T23:32:37.770Z,26.73
2019-03-11T23:35:09.691Z,20.80
2019-03-11T23:37:41.242Z,27.93
2019-03-11T23:40:12.800Z,27.80
2019-03-11T23:42:46.896Z,20.57
2019-03-11T23:45:18.143Z,21.67
2019-03-11T23:47:49.798Z,21.20
2019-03-11T23:50:21.060Z,27.83
2019-03-11T23:52:52.317Z,19.73
2019-03-11T23:55:25.693Z,25.93
2019-03-11T23:57:56.922Z,22.73
